createdAt,value
2023-03-12T00:02:09.057Z,28.00
2023-03-12T00:04:29.449Z,24.23
2023-03-12T00:06:49.957Z,29.38
2023-03-12T00:09:10.263Z,25.33
2023-03-12T00:11:30.611Z,30.25
2023-03-12T00:13:52.519Z,25.13
2023-03-12T00:16:14.716Z,21.88
2023-03-12T00:18:35.013Z,19.77
2023-03-12T00:20:55.663Z,24.98
2023-03-12T00:23:15.904Z,16.15
2023-03-12T00:25:36.219Z,28.00
2023-03-12T00:27:56.463Z,16.10
2023-03-12T00:30:16.689Z,14.00
2023-03-12T00:32:37.704Z,17.63
2023-03-12T00:35:00.226Z,17.95
2023-03-12T00:37:20.687Z,18.42
2023-03-12T00:39:41.108Z,13.13
2023-03-12T00:42:01.246Z,15.65
2023-03-12T00:44:21.539Z,19.30
2023-03-12T00:46:41.894Z,20.42
2023-03-12T00:49:01.967Z,26.83
2023-03-12T00:51:22.429Z,15.15
2023-03-12T00:53:42.877Z,14.73
2023-03-12T00:56:04.436Z,15.20
2023-03-12T00:58:24.997Z,17.73
2023-03-12T01:00:45.293Z,20.75
2023-03-12T01:03:05.845Z,23.05
2023-03-12T01:05:26.011Z,21.02
2023-03-12T01:07:46.272Z,18.33
2023-03-12T01:10:07.529Z,26.20
2023-03-12T01:12:27.692Z,23.35
2023-03-12T01:17:22.753Z,29.02
2023-03-12T01:19:43.237Z,21.40
2023-03-12T01:22:03.698Z,20.92
2023-03-12T01:24:24.196Z,20.35
2023-03-12T01:26:44.484Z,10.80
2023-03-12T01:29:04.784Z,13.80
2023-03-12T01:31:25.489Z,18.98
2023-03-12T01:33:49.770Z,17.33
2023-03-12T01:36:30.197Z,14.00
2023-03-12T01:38:51.225Z,18.42
2023-03-12T01:41:11.020Z,18.58
2023-03-12T01:43:32.812Z,14.27
2023-03-12T01:46:04.723Z,13.27
2023-03-12T01:48:25.594Z,14.30
2023-03-12T01:50:46.037Z,14.57
2023-03-12T01:53:06.206Z,15.63
2023-03-12T01:55:26.462Z,19.52
2023-03-12T01:57:52.189Z,14.98
2023-03-12T02:00:14.743Z,18.70
2023-03-12T02:02:35.787Z,12.57
2023-03-12T02:05:02.914Z,17.38
2023-03-12T02:07:23.444Z,21.92
2023-03-12T02:09:45.406Z,10.13
2023-03-12T02:12:06.172Z,20.40
2023-03-12T02:14:26.459Z,17.15
2023-03-12T02:16:46.545Z,15.02
2023-03-12T02:19:12.282Z,25.70
2023-03-12T02:21:34.541Z,22.48
2023-03-12T02:24:03.060Z,18.33
2023-03-12T02:26:24.663Z,19.08
2023-03-12T02:28:45.876Z,10.20
2023-03-12T02:31:06.624Z,15.93
2023-03-12T02:33:26.874Z,13.05
2023-03-12T02:35:48.146Z,17.17
2023-03-12T02:38:26.871Z,19.90
2023-03-12T02:40:47.828Z,16.80
2023-03-12T02:43:09.278Z,18.08
2023-03-12T02:45:29.225Z,12.65
2023-03-12T02:47:49.164Z,16.52
2023-03-12T02:50:09.862Z,21.73
2023-03-12T02:52:34.851Z,17.65
2023-03-12T02:54:55.119Z,13.35
2023-03-12T02:57:15.294Z,11.93
2023-03-12T02:59:35.321Z,8.75
2023-03-12T03:01:57.114Z,8.10
2023-03-12T03:04:17.078Z,7.35
2023-03-12T03:06:38.291Z,10.55
2023-03-12T03:08:58.830Z,11.20
2023-03-12T03:11:23.548Z,17.83
2023-03-12T03:13:44.234Z,17.05
2023-03-12T03:16:04.385Z,15.63
2023-03-12T03:18:24.678Z,7.80
2023-03-12T03:20:45.069Z,11.98
2023-03-12T03:23:05.102Z,14.23
2023-03-12T03:25:25.134Z,9.43
2023-03-12T03:27:45.011Z,10.85
2023-03-12T03:30:05.484Z,8.20
2023-03-12T03:32:25.582Z,11.77
2023-03-12T03:34:45.823Z,11.32
2023-03-12T03:37:06.046Z,13.68
2023-03-12T03:39:27.988Z,14.30
2023-03-12T03:41:48.127Z,10.48
2023-03-12T03:44:08.250Z,8.40
2023-03-12T03:46:28.309Z,13.13
2023-03-12T03:48:50.240Z,13.02
2023-03-12T03:51:11.213Z,7.25
2023-03-12T03:53:31.403Z,10.43
2023-03-12T03:55:51.291Z,8.02
2023-03-12T03:58:11.491Z,12.35
2023-03-12T04:00:31.592Z,8.60
2023-03-12T04:02:51.794Z,11.65
2023-03-12T04:05:12.285Z,13.05
2023-03-12T04:07:32.562Z,7.13
2023-03-12T04:09:52.548Z,7.03
2023-03-12T04:12:12.583Z,6.78
2023-03-12T04:14:32.673Z,11.25
2023-03-12T04:16:53.029Z,11.02
2023-03-12T04:19:13.263Z,11.63
2023-03-12T04:21:33.686Z,8.75
2023-03-12T04:23:53.891Z,7.95
2023-03-12T04:26:14.221Z,8.95
2023-03-12T04:28:34.815Z,14.23
2023-03-12T04:30:56.159Z,8.27
2023-03-12T04:33:16.415Z,9.35
2023-03-12T04:35:36.609Z,11.15
2023-03-12T04:37:56.683Z,8.35
2023-03-12T04:40:18.596Z,9.32
2023-03-12T04:42:39.067Z,15.77
2023-03-12T04:44:59.353Z,10.88
2023-03-12T04:47:19.588Z,10.13
2023-03-12T04:49:39.733Z,9.50
2023-03-12T04:51:59.964Z,10.68
2023-03-12T04:54:23.457Z,9.50
2023-03-12T04:56:43.617Z,12.23
2023-03-12T04:59:03.747Z,13.27
2023-03-12T05:01:28.880Z,14.98
2023-03-12T05:03:49.371Z,8.02
2023-03-12T05:06:09.503Z,16.52
2023-03-12T05:08:29.684Z,18.05
2023-03-12T05:10:49.909Z,11.20
2023-03-12T05:13:17.465Z,13.80
2023-03-12T05:15:38.079Z,9.27
2023-03-12T05:17:58.246Z,16.42
2023-03-12T05:20:18.900Z,15.77
2023-03-12T05:22:39.567Z,20.48
2023-03-12T05:24:59.536Z,16.40
2023-03-12T05:27:19.863Z,16.55
2023-03-12T05:29:40.040Z,12.57
2023-03-12T05:32:00.148Z,13.20
2023-03-12T05:34:20.329Z,18.25
2023-03-12T05:36:40.432Z,20.52
2023-03-12T05:39:00.414Z,15.38
2023-03-12T05:41:22.362Z,18.05
2023-03-12T05:43:42.440Z,8.55
2023-03-12T05:46:04.141Z,14.23
2023-03-12T05:48:24.172Z,18.98
2023-03-12T05:50:45.079Z,45.65
2023-03-12T05:53:04.977Z,43.15
2023-03-12T05:55:25.127Z,16.80
2023-03-12T05:57:45.195Z,50.45
2023-03-12T06:00:05.736Z,94.68
2023-03-12T06:02:25.989Z,102.18
2023-03-12T06:04:46.049Z,51.00
2023-03-12T06:07:06.114Z,62.33
2023-03-12T06:09:26.237Z,65.05
2023-03-12T06:11:46.405Z,75.00
2023-03-12T06:14:06.539Z,53.15
2023-03-12T06:16:27.585Z,40.20
2023-03-12T06:18:48.060Z,79.93
2023-03-12T06:21:12.528Z,63.35
2023-03-12T06:23:32.590Z,102.78
2023-03-12T06:25:52.817Z,119.07
2023-03-12T06:28:12.973Z,90.47
2023-03-12T06:30:33.195Z,12.70
2023-03-12T06:32:53.624Z,5.97
2023-03-12T06:35:14.060Z,132.32
2023-03-12T06:37:34.152Z,84.13
2023-03-12T06:39:54.456Z,161.25
2023-03-12T06:42:14.652Z,54.55
2023-03-12T06:44:35.045Z,97.22
2023-03-12T06:46:55.186Z,58.38
2023-03-12T06:49:15.600Z,137.52
2023-03-12T06:51:35.517Z,135.43
2023-03-12T06:53:55.581Z,193.50
2023-03-12T06:56:15.902Z,107.10
2023-03-12T06:58:36.080Z,51.45
2023-03-12T07:00:56.795Z,95.97
2023-03-12T07:03:17.086Z,112.55
2023-03-12T07:05:37.314Z,135.00
2023-03-12T07:07:57.555Z,131.15
2023-03-12T07:10:17.958Z,121.47
2023-03-12T07:12:38.297Z,26.80
2023-03-12T07:14:58.759Z,23.35
2023-03-12T07:17:19.057Z,62.03
2023-03-12T07:19:39.394Z,15.07
2023-03-12T07:21:59.698Z,37.50
2023-03-12T07:24:19.943Z,28.90
2023-03-12T07:26:40.291Z,12.60
2023-03-12T07:29:00.437Z,5.65
2023-03-12T07:31:20.611Z,14.13
2023-03-12T07:33:41.147Z,9.18
2023-03-12T07:36:02.217Z,7.40
2023-03-12T07:38:23.148Z,4.97
2023-03-12T07:40:43.719Z,12.15
2023-03-12T07:43:10.549Z,23.15
2023-03-12T07:45:30.561Z,45.08
2023-03-12T07:47:50.827Z,23.25
2023-03-12T07:50:12.043Z,33.22
2023-03-12T07:52:32.075Z,41.47
2023-03-12T07:54:53.529Z,7.10
2023-03-12T07:57:13.872Z,5.90
2023-03-12T07:59:33.862Z,5.95
2023-03-12T08:01:54.504Z,5.13
2023-03-12T08:04:14.798Z,4.70
2023-03-12T08:06:34.887Z,5.80
2023-03-12T08:08:55.391Z,5.07
2023-03-12T08:11:15.518Z,11.43
2023-03-12T08:13:35.618Z,4.25
2023-03-12T08:15:55.822Z,4.22
2023-03-12T08:18:15.919Z,5.22
2023-03-12T08:20:36.307Z,5.80
2023-03-12T08:22:56.525Z,8.27
2023-03-12T08:25:17.892Z,6.07
2023-03-12T08:27:37.826Z,5.40
2023-03-12T08:29:58.106Z,10.07
2023-03-12T08:32:18.462Z,5.50
2023-03-12T08:34:38.511Z,5.18
2023-03-12T08:36:58.773Z,6.50
2023-03-12T08:39:18.968Z,8.95
2023-03-12T08:41:39.223Z,6.18
2023-03-12T08:43:59.486Z,4.65
2023-03-12T08:46:19.852Z,6.00
2023-03-12T08:48:40.426Z,5.60
2023-03-12T08:51:03.461Z,5.85
2023-03-12T08:53:24.919Z,4.80
2023-03-12T08:55:45.141Z,6.57
2023-03-12T08:58:05.205Z,3.75
2023-03-12T09:00:25.410Z,5.25
2023-03-12T09:02:45.773Z,4.10
2023-03-12T09:05:06.914Z,4.68
2023-03-12T09:07:27.055Z,4.85
2023-03-12T09:09:47.176Z,5.70
2023-03-12T09:12:07.484Z,5.93
2023-03-12T09:15:01.565Z,5.22
2023-03-12T09:17:07.935Z,5.53
2023-03-12T09:19:28.264Z,5.78
2023-03-12T09:21:48.576Z,4.50
2023-03-12T09:24:09.796Z,4.70
2023-03-12T09:26:30.000Z,5.20
2023-03-12T09:28:50.302Z,4.90
2023-03-12T09:31:10.538Z,4.72
2023-03-12T09:33:31.377Z,4.22
2023-03-12T09:35:58.724Z,4.93
2023-03-12T09:38:19.032Z,4.90
2023-03-12T09:40:39.313Z,4.22
2023-03-12T09:43:02.308Z,4.45
2023-03-12T09:45:27.711Z,3.95
2023-03-12T09:47:50.141Z,4.50
2023-03-12T09:50:13.362Z,3.97
2023-03-12T09:52:42.223Z,4.63
2023-03-12T09:57:42.243Z,3.75
2023-03-12T10:00:04.798Z,5.22
2023-03-12T10:02:54.659Z,5.38
2023-03-12T10:05:23.125Z,4.40
2023-03-12T10:07:47.598Z,5.72
2023-03-12T10:10:27.894Z,4.55
2023-03-12T10:13:03.130Z,4.22
2023-03-12T10:15:26.388Z,4.88
2023-03-12T10:17:54.309Z,5.80
2023-03-12T10:20:33.569Z,4.75
2023-03-12T10:22:57.162Z,4.05
2023-03-12T10:25:46.924Z,4.45
2023-03-12T10:28:29.125Z,3.80
2023-03-12T10:30:53.351Z,4.00
2023-03-12T10:33:15.976Z,4.75
2023-03-12T10:35:36.197Z,3.95
2023-03-12T10:38:00.242Z,3.88
2023-03-12T10:40:24.731Z,3.47
2023-03-12T10:42:45.377Z,3.83
2023-03-12T10:45:11.965Z,3.47
2023-03-12T10:47:35.096Z,3.40
2023-03-12T10:49:55.138Z,3.33
2023-03-12T10:52:16.733Z,2.83
2023-03-12T10:54:42.941Z,3.50
2023-03-12T10:57:03.801Z,3.17
2023-03-12T10:59:27.049Z,3.28
2023-03-12T11:01:51.871Z,4.35
2023-03-12T11:04:17.285Z,2.78
2023-03-12T11:06:37.403Z,2.95
2023-03-12T11:09:17.103Z,3.55
2023-03-12T11:12:05.048Z,3.92
2023-03-12T11:14:26.715Z,3.47
2023-03-12T11:16:47.292Z,2.90
2023-03-12T11:19:09.876Z,2.80
2023-03-12T11:24:00.355Z,3.03
2023-03-12T11:26:22.061Z,2.55
2023-03-12T11:28:44.148Z,2.72
2023-03-12T11:31:06.975Z,2.90
2023-03-12T11:33:27.297Z,2.30
2023-03-12T11:36:08.003Z,3.83
2023-03-12T11:38:42.424Z,3.28
2023-03-12T11:41:06.107Z,5.00
2023-03-12T11:43:41.626Z,2.67
2023-03-12T11:46:03.119Z,2.10
2023-03-12T11:48:32.394Z,4.65
2023-03-12T11:51:11.617Z,2.35
2023-03-12T11:53:50.904Z,2.25
2023-03-12T11:56:23.324Z,2.28
2023-03-12T11:59:05.439Z,1.75
2023-03-12T12:01:25.677Z,2.13
2023-03-12T12:03:45.855Z,2.85
2023-03-12T12:06:09.123Z,1.70
2023-03-12T12:08:47.472Z,2.03
2023-03-12T12:11:14.820Z,2.03
2023-03-12T12:13:44.718Z,2.67
2023-03-12T12:16:10.889Z,1.83
2023-03-12T12:18:51.315Z,2.40
2023-03-12T12:21:17.344Z,1.40
2023-03-12T12:23:56.670Z,1.45
2023-03-12T12:26:24.752Z,2.50
2023-03-12T12:29:04.945Z,1.77
2023-03-12T12:31:27.814Z,1.55
2023-03-12T12:34:07.052Z,1.77
2023-03-12T12:36:28.281Z,3.45
2023-03-12T12:38:56.735Z,1.88
2023-03-12T12:41:27.682Z,2.40
2023-03-12T12:43:49.292Z,1.98
2023-03-12T12:46:12.655Z,2.17
2023-03-12T12:48:42.182Z,1.50
2023-03-12T12:51:03.404Z,1.92
2023-03-12T12:53:30.764Z,1.67
2023-03-12T12:56:02.893Z,1.00
2023-03-12T12:58:26.453Z,4.50
2023-03-12T13:00:51.288Z,3.15
2023-03-12T13:03:16.990Z,1.95
2023-03-12T13:05:37.463Z,2.03
2023-03-12T13:07:57.715Z,1.10
2023-03-12T13:10:33.082Z,1.13
2023-03-12T13:12:55.221Z,0.98
2023-03-12T13:15:30.817Z,1.00
2023-03-12T13:18:00.094Z,28.23
2023-03-12T13:20:21.050Z,1.15
2023-03-12T13:22:55.917Z,1.00
2023-03-12T13:25:35.456Z,1.65
2023-03-12T13:28:17.511Z,1.02
2023-03-12T13:30:37.577Z,6.03
2023-03-12T13:32:57.697Z,0.90
2023-03-12T13:35:18.246Z,11.10
2023-03-12T13:37:57.021Z,1.48
2023-03-12T13:40:29.484Z,4.40
2023-03-12T13:43:02.085Z,1.92
2023-03-12T13:45:23.846Z,2.33
2023-03-12T13:47:44.154Z,0.80
2023-03-12T13:50:05.968Z,1.20
2023-03-12T13:52:30.305Z,1.20
2023-03-12T13:55:07.947Z,0.90
2023-03-12T13:57:34.445Z,0.80
2023-03-12T13:59:56.456Z,1.67
2023-03-12T14:02:28.662Z,1.98
2023-03-12T14:04:49.206Z,1.08
2023-03-12T14:07:28.325Z,0.80
2023-03-12T14:10:00.019Z,0.93
2023-03-12T14:12:29.921Z,0.77
2023-03-12T14:14:50.044Z,1.27
2023-03-12T14:17:20.371Z,0.80
2023-03-12T14:19:41.271Z,0.80
2023-03-12T14:22:04.442Z,1.17
2023-03-12T14:24:27.881Z,1.98
2023-03-12T14:26:48.552Z,0.80
2023-03-12T14:29:19.857Z,1.65
2023-03-12T14:31:40.736Z,0.80
2023-03-12T14:34:07.759Z,5.05
2023-03-12T14:36:32.233Z,0.90
2023-03-12T14:38:56.679Z,1.65
2023-03-12T14:41:22.660Z,0.80
2023-03-12T14:43:45.310Z,1.02
2023-03-12T14:46:06.541Z,0.70
2023-03-12T14:48:31.619Z,1.65
2023-03-12T14:50:52.063Z,0.95
2023-03-12T14:53:14.090Z,0.80
2023-03-12T14:55:34.382Z,0.70
2023-03-12T14:58:05.426Z,0.80
2023-03-12T15:00:26.654Z,1.60
2023-03-12T15:02:46.679Z,0.90
2023-03-12T15:05:16.324Z,0.80
2023-03-12T15:07:38.919Z,0.80
2023-03-12T15:09:58.849Z,0.85
2023-03-12T15:12:23.870Z,0.75
2023-03-12T15:14:44.490Z,1.00
2023-03-12T15:17:05.732Z,2.50
2023-03-12T15:19:46.119Z,1.75
2023-03-12T15:22:09.898Z,1.27
2023-03-12T15:24:34.006Z,1.20
2023-03-12T15:26:54.191Z,1.00
2023-03-12T15:29:14.271Z,0.90
2023-03-12T15:31:41.958Z,0.90
2023-03-12T15:34:04.001Z,1.00
2023-03-12T15:36:26.120Z,0.80
2023-03-12T15:38:48.629Z,1.05
2023-03-12T15:41:09.330Z,0.80
2023-03-12T15:43:30.490Z,0.80
2023-03-12T15:46:05.240Z,3.80
2023-03-12T15:48:30.472Z,1.13
2023-03-12T15:50:50.837Z,1.08
2023-03-12T15:53:14.335Z,1.48
2023-03-12T15:55:35.574Z,1.10
2023-03-12T15:57:56.595Z,1.35
2023-03-12T16:00:20.208Z,0.80
2023-03-12T16:02:55.820Z,0.88
2023-03-12T16:05:15.970Z,2.20
2023-03-12T16:07:35.927Z,2.83
2023-03-12T16:09:56.187Z,1.17
2023-03-12T16:12:16.197Z,2.40
2023-03-12T16:14:36.414Z,1.77
2023-03-12T16:16:56.448Z,1.20
2023-03-12T16:19:17.984Z,1.20
2023-03-12T16:21:38.064Z,1.10
2023-03-12T16:23:58.295Z,1.48
2023-03-12T16:26:18.929Z,2.53
2023-03-12T16:28:39.114Z,1.10
2023-03-12T16:30:59.449Z,1.58
2023-03-12T16:33:21.168Z,2.05
2023-03-12T16:35:41.481Z,1.80
2023-03-12T16:38:02.354Z,2.13
2023-03-12T16:40:33.028Z,2.00
2023-03-12T16:42:54.609Z,2.72
2023-03-12T16:45:16.163Z,3.80
2023-03-12T16:47:36.922Z,4.63
2023-03-12T16:49:56.936Z,2.25
2023-03-12T16:52:19.410Z,6.55
2023-03-12T16:54:39.853Z,1.70
2023-03-12T16:57:00.175Z,6.03
2023-03-12T16:59:25.043Z,5.10
2023-03-12T17:01:45.312Z,2.47
2023-03-12T17:04:05.371Z,3.00
2023-03-12T17:06:26.843Z,4.95
2023-03-12T17:08:47.297Z,1.98
2023-03-12T17:11:13.953Z,1.45
2023-03-12T17:13:36.134Z,1.48
2023-03-12T17:15:56.691Z,1.98
2023-03-12T17:18:17.954Z,2.10
2023-03-12T17:20:38.438Z,6.65
2023-03-12T17:22:58.696Z,6.65
2023-03-12T17:25:23.621Z,5.60
2023-03-12T17:27:44.051Z,3.70
2023-03-12T17:30:04.631Z,2.10
2023-03-12T17:35:06.393Z,5.70
2023-03-12T17:37:26.519Z,4.00
2023-03-12T17:39:47.895Z,10.32
2023-03-12T17:42:08.248Z,4.75
2023-03-12T17:44:33.813Z,8.02
2023-03-12T17:46:59.727Z,8.82
2023-03-12T17:49:19.939Z,16.88
2023-03-12T17:51:39.993Z,7.50
2023-03-12T17:54:00.180Z,7.18
2023-03-12T17:56:20.689Z,5.90
2023-03-12T17:58:40.960Z,4.88
2023-03-12T18:01:01.262Z,3.60
2023-03-12T18:03:21.470Z,8.73
2023-03-12T18:05:42.352Z,8.98
2023-03-12T18:08:02.795Z,17.45
2023-03-12T18:10:23.076Z,7.53
2023-03-12T18:12:43.388Z,80.03
2023-03-12T18:15:04.520Z,29.85
2023-03-12T18:17:24.722Z,28.73
2023-03-12T18:19:44.970Z,60.95
2023-03-12T18:22:06.564Z,11.40
2023-03-12T18:24:26.982Z,10.20
2023-03-12T18:26:49.769Z,27.15
2023-03-12T18:29:09.560Z,21.73
2023-03-12T18:31:29.837Z,11.38
2023-03-12T18:33:50.059Z,9.07
2023-03-12T18:36:10.266Z,10.60
2023-03-12T18:38:31.490Z,8.77
2023-03-12T18:40:53.050Z,10.82
2023-03-12T18:43:13.520Z,12.80
2023-03-12T18:45:46.373Z,22.00
2023-03-12T18:50:26.728Z,21.50
2023-03-12T18:52:47.265Z,18.58
2023-03-12T18:55:07.333Z,10.65
2023-03-12T18:57:27.603Z,15.75
2023-03-12T18:59:48.241Z,16.50
2023-03-12T19:02:09.247Z,9.02
2023-03-12T19:04:49.807Z,9.70
2023-03-12T19:07:10.263Z,9.88
2023-03-12T19:09:30.325Z,8.52
2023-03-12T19:11:50.607Z,8.48
2023-03-12T19:14:11.652Z,5.85
2023-03-12T19:16:32.472Z,7.82
2023-03-12T19:18:52.507Z,9.15
2023-03-12T19:21:12.653Z,9.88
2023-03-12T19:23:32.609Z,11.00
2023-03-12T19:25:52.937Z,11.27
2023-03-12T19:28:13.221Z,13.25
2023-03-12T19:30:33.444Z,21.73
2023-03-12T19:32:53.749Z,30.65
2023-03-12T19:35:14.676Z,14.75
2023-03-12T19:37:35.143Z,10.18
2023-03-12T19:39:55.201Z,11.20
2023-03-12T19:42:15.515Z,9.00
2023-03-12T19:44:38.508Z,7.95
2023-03-12T19:46:58.932Z,24.23
2023-03-12T19:49:19.654Z,9.20
2023-03-12T19:51:40.605Z,12.23
2023-03-12T19:54:00.557Z,13.43
2023-03-12T19:56:21.064Z,10.75
2023-03-12T19:58:48.281Z,16.00
2023-03-12T20:01:08.216Z,14.48
2023-03-12T20:03:28.858Z,20.58
2023-03-12T20:05:50.048Z,11.10
2023-03-12T20:08:10.558Z,10.23
2023-03-12T20:10:31.747Z,12.93
2023-03-12T20:12:52.204Z,14.70
2023-03-12T20:15:12.453Z,12.80
2023-03-12T20:17:32.792Z,13.80
2023-03-12T20:19:52.808Z,14.88
2023-03-12T20:22:12.923Z,12.75
2023-03-12T20:24:33.495Z,11.10
2023-03-12T20:26:53.530Z,6.38
2023-03-12T20:29:13.470Z,9.75
2023-03-12T20:31:34.270Z,9.02
2023-03-12T20:33:54.560Z,9.38
2023-03-12T20:36:14.780Z,11.95
2023-03-12T20:38:35.028Z,12.00
2023-03-12T20:40:54.929Z,11.23
2023-03-12T20:43:15.013Z,15.05
2023-03-12T20:45:35.354Z,16.23
2023-03-12T20:47:57.120Z,13.95
2023-03-12T20:50:17.667Z,12.10
2023-03-12T20:52:38.131Z,9.73
2023-03-12T20:54:58.194Z,12.43
2023-03-12T20:57:18.551Z,15.60
2023-03-12T20:59:38.713Z,15.80
2023-03-12T21:01:58.889Z,15.57
2023-03-12T21:04:19.115Z,11.13
2023-03-12T21:06:39.466Z,11.18
2023-03-12T21:08:59.690Z,10.02
2023-03-12T21:11:19.940Z,8.98
2023-03-12T21:13:40.323Z,9.20
2023-03-12T21:16:00.676Z,11.95
2023-03-12T21:18:20.741Z,16.52
2023-03-12T21:20:41.910Z,15.10
2023-03-12T21:23:04.157Z,18.60
2023-03-12T21:25:24.677Z,14.13
2023-03-12T21:27:50.855Z,8.65
2023-03-12T21:30:12.462Z,18.45
2023-03-12T21:32:32.907Z,18.25
2023-03-12T21:34:52.958Z,14.73
2023-03-12T21:37:13.280Z,13.82
2023-03-12T21:39:34.087Z,12.60
2023-03-12T21:41:54.447Z,15.98
2023-03-12T21:44:16.476Z,15.70
2023-03-12T21:46:36.944Z,16.20
2023-03-12T21:48:58.198Z,16.73
2023-03-12T21:51:18.949Z,15.02
2023-03-12T21:53:39.129Z,14.07
2023-03-12T21:55:59.870Z,21.67
2023-03-12T21:58:20.091Z,20.30
2023-03-12T22:00:40.255Z,22.88
2023-03-12T22:03:00.282Z,21.83
2023-03-12T22:05:20.538Z,14.88
2023-03-12T22:07:40.744Z,13.68
2023-03-12T22:10:00.719Z,27.63
2023-03-12T22:12:20.943Z,20.73
2023-03-12T22:14:41.154Z,30.92
2023-03-12T22:17:01.167Z,16.45
2023-03-12T22:19:21.442Z,13.07
2023-03-12T22:21:42.320Z,11.30
2023-03-12T22:24:02.808Z,14.13
2023-03-12T22:26:24.266Z,14.15
2023-03-12T22:28:48.548Z,12.50
2023-03-12T22:31:09.226Z,10.57
2023-03-12T22:33:29.578Z,14.93
2023-03-12T22:35:49.731Z,13.52
2023-03-12T22:38:09.810Z,15.70
2023-03-12T22:40:30.033Z,11.25
2023-03-12T22:42:50.519Z,11.27
2023-03-12T22:45:10.849Z,10.18
2023-03-12T22:47:31.011Z,10.07
2023-03-12T22:49:52.364Z,9.95
2023-03-12T22:52:12.622Z,8.30
2023-03-12T22:54:32.792Z,11.45
2023-03-12T22:56:52.850Z,10.45
2023-03-12T22:59:12.993Z,10.68
2023-03-12T23:01:33.194Z,11.23
2023-03-12T23:03:53.693Z,8.90
2023-03-12T23:06:15.542Z,9.10
2023-03-12T23:08:35.706Z,9.82
2023-03-12T23:10:57.515Z,9.05
2023-03-12T23:13:18.018Z,11.48
2023-03-12T23:15:41.465Z,9.95
2023-03-12T23:18:02.157Z,11.80
2023-03-12T23:20:23.748Z,14.77
2023-03-12T23:22:44.026Z,14.50
2023-03-12T23:25:04.187Z,15.00
2023-03-12T23:27:24.371Z,14.98
2023-03-12T23:29:44.377Z,15.00
2023-03-12T23:32:04.800Z,12.10
2023-03-12T23:34:25.286Z,11.15
2023-03-12T23:36:45.789Z,9.57
2023-03-12T23:39:05.908Z,9.77
2023-03-12T23:41:30.129Z,9.35
2023-03-12T23:43:50.977Z,8.40
2023-03-12T23:46:11.908Z,5.70
2023-03-12T23:48:32.661Z,7.20
2023-03-12T23:50:53.038Z,9.48
2023-03-12T23:53:13.227Z,8.27
2023-03-12T23:55:33.349Z,8.57
2023-03-12T23:57:53.468Z,9.73
